sensor_id;sensor_type;location;lat;lon;timestamp;temperature;humidity
14140;DHT22;7150;53.514;9.988;2022-09-09T00:02:17;20.80;95.10
14140;DHT22;7150;53.514;9.988;2022-09-09T00:04:52;20.80;95.10
14140;DHT22;7150;53.514;9.988;2022-09-09T00:07:50;20.80;95.10
14140;DHT22;7150;53.514;9.988;2022-09-09T00:10:28;20.80;95.00
14140;DHT22;7150;53.514;9.988;2022-09-09T00:15:59;20.60;95.10
14140;DHT22;7150;53.514;9.988;2022-09-09T00:21:33;20.80;95.20
14140;DHT22;7150;53.514;9.988;2022-09-09T00:24:08;20.80;95.30
14140;DHT22;7150;53.514;9.988;2022-09-09T00:26:40;20.70;95.30
14140;DHT22;7150;53.514;9.988;2022-09-09T00:31:34;20.80;95.40
14140;DHT22;7150;53.514;9.988;2022-09-09T00:34:14;20.80;95.30
14140;DHT22;7150;53.514;9.988;2022-09-09T00:36:41;20.80;95.30
14140;DHT22;7150;53.514;9.988;2022-09-09T00:39:23;20.90;95.40
14140;DHT22;7150;53.514;9.988;2022-09-09T00:41:55;20.80;95.40
14140;DHT22;7150;53.514;9.988;2022-09-09T00:44:34;20.80;95.30
14140;DHT22;7150;53.514;9.988;2022-09-09T00:50:05;20.90;95.30
14140;DHT22;7150;53.514;9.988;2022-09-09T00:53:02;20.90;95.30
14140;DHT22;7150;53.514;9.988;2022-09-09T00:55:45;20.90;95.30
14140;DHT22;7150;53.514;9.988;2022-09-09T00:58:13;20.90;95.30
14140;DHT22;7150;53.514;9.988;2022-09-09T01:00:51;20.90;95.40
14140;DHT22;7150;53.514;9.988;2022-09-09T01:03:27;20.90;95.40
14140;DHT22;7150;53.514;9.988;2022-09-09T01:17:21;20.80;95.40
14140;DHT22;7150;53.514;9.988;2022-09-09T01:22:44;20.80;95.40
14140;DHT22;7150;53.514;9.988;2022-09-09T01:27:52;20.80;95.50
14140;DHT22;7150;53.514;9.988;2022-09-09T01:30:19;20.70;95.50
14140;DHT22;7150;53.514;9.988;2022-09-09T01:32:48;20.70;95.50
14140;DHT22;7150;53.514;9.988;2022-09-09T01:38:07;20.70;95.50
14140;DHT22;7150;53.514;9.988;2022-09-09T01:40:33;20.70;95.50
14140;DHT22;7150;53.514;9.988;2022-09-09T01:42:59;20.70;95.50
14140;DHT22;7150;53.514;9.988;2022-09-09T01:45:25;20.70;95.50
14140;DHT22;7150;53.514;9.988;2022-09-09T01:47:52;20.70;95.50
14140;DHT22;7150;53.514;9.988;2022-09-09T01:50:19;20.70;95.50
14140;DHT22;7150;53.514;9.988;2022-09-09T01:52:47;20.70;95.50
14140;DHT22;7150;53.514;9.988;2022-09-09T01:55:14;20.60;95.50
14140;DHT22;7150;53.514;9.988;2022-09-09T02:00:44;20.60;95.50
14140;DHT22;7150;53.514;9.988;2022-09-09T02:03:23;20.60;95.60
14140;DHT22;7150;53.514;9.988;2022-09-09T02:08:55;20.60;95.60
14140;DHT22;7150;53.514;9.988;2022-09-09T02:11:24;20.60;95.60
14140;DHT22;7150;53.514;9.988;2022-09-09T02:13:53;20.60;95.60
14140;DHT22;7150;53.514;9.988;2022-09-09T02:16:39;20.60;95.60
14140;DHT22;7150;53.514;9.988;2022-09-09T02:19:16;20.50;95.50
14140;DHT22;7150;53.514;9.988;2022-09-09T02:21:44;20.50;95.50
14140;DHT22;7150;53.514;9.988;2022-09-09T02:24:11;20.50;95.60
14140;DHT22;7150;53.514;9.988;2022-09-09T02:26:41;20.50;95.60
14140;DHT22;7150;53.514;9.988;2022-09-09T02:29:26;20.50;95.60
14140;DHT22;7150;53.514;9.988;2022-09-09T02:31:57;20.50;95.60
14140;DHT22;7150;53.514;9.988;2022-09-09T02:34:24;20.50;95.60
14140;DHT22;7150;53.514;9.988;2022-09-09T02:36:52;20.50;95.60
14140;DHT22;7150;53.514;9.988;2022-09-09T02:39:19;20.40;95.60
14140;DHT22;7150;53.514;9.988;2022-09-09T02:41:44;20.40;95.60
14140;DHT22;7150;53.514;9.988;2022-09-09T02:44:14;20.40;95.60
14140;DHT22;7150;53.514;9.988;2022-09-09T02:49:51;20.40;95.60
14140;DHT22;7150;53.514;9.988;2022-09-09T02:52:29;20.40;95.60
14140;DHT22;7150;53.514;9.988;2022-09-09T02:55:02;20.40;95.70
14140;DHT22;7150;53.514;9.988;2022-09-09T02:57:31;20.40;95.60
14140;DHT22;7150;53.514;9.988;2022-09-09T02:59:58;20.40;95.60
14140;DHT22;7150;53.514;9.988;2022-09-09T03:02:25;20.40;95.60
14140;DHT22;7150;53.514;9.988;2022-09-09T03:04:50;20.30;95.80
14140;DHT22;7150;53.514;9.988;2022-09-09T03:07:18;20.30;95.60
14140;DHT22;7150;53.514;9.988;2022-09-09T03:09:43;20.40;95.50
14140;DHT22;7150;53.514;9.988;2022-09-09T03:12:10;20.40;95.50
14140;DHT22;7150;53.514;9.988;2022-09-09T03:14:37;20.30;95.50
14140;DHT22;7150;53.514;9.988;2022-09-09T03:17:04;20.30;95.50
14140;DHT22;7150;53.514;9.988;2022-09-09T03:19:30;20.30;95.50
14140;DHT22;7150;53.514;9.988;2022-09-09T03:21:55;20.30;95.50
14140;DHT22;7150;53.514;9.988;2022-09-09T03:24:21;20.30;95.50
14140;DHT22;7150;53.514;9.988;2022-09-09T03:26:48;20.30;95.50
14140;DHT22;7150;53.514;9.988;2022-09-09T03:29:14;20.20;95.40
14140;DHT22;7150;53.514;9.988;2022-09-09T03:31:40;20.20;95.50
14140;DHT22;7150;53.514;9.988;2022-09-09T03:34:06;20.20;95.50
14140;DHT22;7150;53.514;9.988;2022-09-09T03:36:32;20.20;95.50
14140;DHT22;7150;53.514;9.988;2022-09-09T03:38:58;20.20;95.50
14140;DHT22;7150;53.514;9.988;2022-09-09T03:41:26;20.20;95.50
14140;DHT22;7150;53.514;9.988;2022-09-09T03:43:53;20.20;95.40
14140;DHT22;7150;53.514;9.988;2022-09-09T03:46:19;20.20;95.40
14140;DHT22;7150;53.514;9.988;2022-09-09T03:48:46;20.20;95.50
14140;DHT22;7150;53.514;9.988;2022-09-09T03:51:12;20.10;95.40
14140;DHT22;7150;53.514;9.988;2022-09-09T03:53:37;20.10;95.40
14140;DHT22;7150;53.514;9.988;2022-09-09T03:56:04;20.10;95.50
14140;DHT22;7150;53.514;9.988;2022-09-09T03:58:33;20.10;95.50
14140;DHT22;7150;53.514;9.988;2022-09-09T04:01:10;20.10;95.50
14140;DHT22;7150;53.514;9.988;2022-09-09T04:03:38;20.10;95.50
14140;DHT22;7150;53.514;9.988;2022-09-09T04:06:05;20.00;95.50
14140;DHT22;7150;53.514;9.988;2022-09-09T04:08:33;20.10;95.50
14140;DHT22;7150;53.514;9.988;2022-09-09T04:11:00;20.00;95.40
14140;DHT22;7150;53.514;9.988;2022-09-09T04:13:26;20.10;95.50
14140;DHT22;7150;53.514;9.988;2022-09-09T04:15:54;20.10;95.50
14140;DHT22;7150;53.514;9.988;2022-09-09T04:18:21;20.00;95.40
14140;DHT22;7150;53.514;9.988;2022-09-09T04:20:47;20.00;95.40
14140;DHT22;7150;53.514;9.988;2022-09-09T04:23:13;20.00;95.40
14140;DHT22;7150;53.514;9.988;2022-09-09T04:25:50;20.00;95.30
14140;DHT22;7150;53.514;9.988;2022-09-09T04:28:17;20.00;95.40
14140;DHT22;7150;53.514;9.988;2022-09-09T04:30:43;20.00;95.40
14140;DHT22;7150;53.514;9.988;2022-09-09T04:33:09;20.00;95.40
14140;DHT22;7150;53.514;9.988;2022-09-09T04:35:35;20.00;95.40
14140;DHT22;7150;53.514;9.988;2022-09-09T04:38:02;20.00;95.40
14140;DHT22;7150;53.514;9.988;2022-09-09T04:40:28;20.00;95.30
14140;DHT22;7150;53.514;9.988;2022-09-09T04:42:55;20.10;95.40
14140;DHT22;7150;53.514;9.988;2022-09-09T04:45:20;20.10;95.40
14140;DHT22;7150;53.514;9.988;2022-09-09T04:47:46;20.10;95.30
14140;DHT22;7150;53.514;9.988;2022-09-09T04:50:11;20.10;95.30
14140;DHT22;7150;53.514;9.988;2022-09-09T04:52:37;20.10;95.30
14140;DHT22;7150;53.514;9.988;2022-09-09T04:55:03;20.10;95.20
14140;DHT22;7150;53.514;9.988;2022-09-09T04:57:29;20.10;95.20
14140;DHT22;7150;53.514;9.988;2022-09-09T04:59:57;20.10;95.20
14140;DHT22;7150;53.514;9.988;2022-09-09T05:02:23;20.10;95.20
14140;DHT22;7150;53.514;9.988;2022-09-09T05:04:48;20.10;95.20
14140;DHT22;7150;53.514;9.988;2022-09-09T05:07:15;20.00;95.20
14140;DHT22;7150;53.514;9.988;2022-09-09T05:09:40;20.00;95.20
14140;DHT22;7150;53.514;9.988;2022-09-09T05:12:06;20.00;95.20
14140;DHT22;7150;53.514;9.988;2022-09-09T05:14:31;20.00;95.20
14140;DHT22;7150;53.514;9.988;2022-09-09T05:16:57;20.00;95.20
14140;DHT22;7150;53.514;9.988;2022-09-09T05:19:23;20.00;95.20
14140;DHT22;7150;53.514;9.988;2022-09-09T05:21:48;20.00;95.20
14140;DHT22;7150;53.514;9.988;2022-09-09T05:24:15;20.00;95.20
14140;DHT22;7150;53.514;9.988;2022-09-09T05:26:41;20.00;95.10
14140;DHT22;7150;53.514;9.988;2022-09-09T05:29:06;20.00;95.10
14140;DHT22;7150;53.514;9.988;2022-09-09T05:31:33;19.90;95.10
14140;DHT22;7150;53.514;9.988;2022-09-09T05:33:59;19.90;95.20
14140;DHT22;7150;53.514;9.988;2022-09-09T05:36:24;19.90;95.20
14140;DHT22;7150;53.514;9.988;2022-09-09T05:38:50;20.00;95.20
14140;DHT22;7150;53.514;9.988;2022-09-09T05:41:16;20.00;95.20
14140;DHT22;7150;53.514;9.988;2022-09-09T05:43:43;19.90;95.20
14140;DHT22;7150;53.514;9.988;2022-09-09T05:46:17;20.00;95.20
14140;DHT22;7150;53.514;9.988;2022-09-09T05:48:44;20.00;95.20
14140;DHT22;7150;53.514;9.988;2022-09-09T05:51:15;20.00;95.20
14140;DHT22;7150;53.514;9.988;2022-09-09T05:53:42;20.10;95.50
14140;DHT22;7150;53.514;9.988;2022-09-09T05:56:10;20.10;95.20
14140;DHT22;7150;53.514;9.988;2022-09-09T05:58:40;20.20;95.20
14140;DHT22;7150;53.514;9.988;2022-09-09T06:03:34;20.20;95.10
14140;DHT22;7150;53.514;9.988;2022-09-09T06:06:01;20.20;95.00
14140;DHT22;7150;53.514;9.988;2022-09-09T06:08:27;20.30;95.10
14140;DHT22;7150;53.514;9.988;2022-09-09T06:10:52;20.30;95.10
14140;DHT22;7150;53.514;9.988;2022-09-09T06:13:18;20.30;95.00
14140;DHT22;7150;53.514;9.988;2022-09-09T06:15:51;20.30;95.00
14140;DHT22;7150;53.514;9.988;2022-09-09T06:18:17;20.30;95.00
14140;DHT22;7150;53.514;9.988;2022-09-09T06:20:53;20.30;95.00
14140;DHT22;7150;53.514;9.988;2022-09-09T06:23:19;20.40;95.10
14140;DHT22;7150;53.514;9.988;2022-09-09T06:25:45;20.30;95.00
14140;DHT22;7150;53.514;9.988;2022-09-09T06:28:11;20.40;95.00
14140;DHT22;7150;53.514;9.988;2022-09-09T06:30:36;20.40;95.00
14140;DHT22;7150;53.514;9.988;2022-09-09T06:33:02;20.40;95.00
14140;DHT22;7150;53.514;9.988;2022-09-09T06:35:28;20.40;95.00
14140;DHT22;7150;53.514;9.988;2022-09-09T06:37:54;20.40;95.00
14140;DHT22;7150;53.514;9.988;2022-09-09T06:40:19;20.40;95.00
14140;DHT22;7150;53.514;9.988;2022-09-09T06:42:45;20.50;95.00
14140;DHT22;7150;53.514;9.988;2022-09-09T06:45:11;20.50;95.00
14140;DHT22;7150;53.514;9.988;2022-09-09T06:47:36;20.50;95.00
14140;DHT22;7150;53.514;9.988;2022-09-09T06:50:02;20.50;95.00
14140;DHT22;7150;53.514;9.988;2022-09-09T06:52:27;20.50;95.00
14140;DHT22;7150;53.514;9.988;2022-09-09T06:54:53;20.50;95.00
14140;DHT22;7150;53.514;9.988;2022-09-09T06:57:19;20.60;95.10
14140;DHT22;7150;53.514;9.988;2022-09-09T06:59:44;20.60;95.00
14140;DHT22;7150;53.514;9.988;2022-09-09T07:02:10;20.60;95.10
14140;DHT22;7150;53.514;9.988;2022-09-09T07:04:36;20.60;95.00
14140;DHT22;7150;53.514;9.988;2022-09-09T07:07:02;20.60;95.10
14140;DHT22;7150;53.514;9.988;2022-09-09T07:09:28;20.70;95.20
14140;DHT22;7150;53.514;9.988;2022-09-09T07:11:54;20.70;95.10
14140;DHT22;7150;53.514;9.988;2022-09-09T07:14:20;20.70;95.10
14140;DHT22;7150;53.514;9.988;2022-09-09T07:16:47;20.70;95.10
14140;DHT22;7150;53.514;9.988;2022-09-09T07:19:14;20.80;95.10
14140;DHT22;7150;53.514;9.988;2022-09-09T07:21:40;20.80;95.10
14140;DHT22;7150;53.514;9.988;2022-09-09T07:24:06;20.70;95.00
14140;DHT22;7150;53.514;9.988;2022-09-09T07:26:36;20.80;95.10
14140;DHT22;7150;53.514;9.988;2022-09-09T07:29:03;20.80;95.10
14140;DHT22;7150;53.514;9.988;2022-09-09T07:31:31;20.80;95.10
14140;DHT22;7150;53.514;9.988;2022-09-09T07:33:58;20.90;95.10
14140;DHT22;7150;53.514;9.988;2022-09-09T07:36:26;21.00;95.20
14140;DHT22;7150;53.514;9.988;2022-09-09T07:38:58;21.00;95.20
14140;DHT22;7150;53.514;9.988;2022-09-09T07:41:27;21.00;95.20
14140;DHT22;7150;53.514;9.988;2022-09-09T07:43:54;21.10;95.10
14140;DHT22;7150;53.514;9.988;2022-09-09T07:46:22;21.10;95.10
14140;DHT22;7150;53.514;9.988;2022-09-09T07:48:50;21.10;95.10
14140;DHT22;7150;53.514;9.988;2022-09-09T07:51:18;21.10;95.10
14140;DHT22;7150;53.514;9.988;2022-09-09T07:53:46;21.20;95.10
14140;DHT22;7150;53.514;9.988;2022-09-09T07:56:14;21.20;95.10
14140;DHT22;7150;53.514;9.988;2022-09-09T07:58:42;21.20;95.10
14140;DHT22;7150;53.514;9.988;2022-09-09T08:01:14;21.30;95.10
14140;DHT22;7150;53.514;9.988;2022-09-09T08:03:39;21.30;95.10
14140;DHT22;7150;53.514;9.988;2022-09-09T08:06:07;21.30;95.10
14140;DHT22;7150;53.514;9.988;2022-09-09T08:08:34;21.40;95.20
14140;DHT22;7150;53.514;9.988;2022-09-09T08:11:06;21.40;95.20
14140;DHT22;7150;53.514;9.988;2022-09-09T08:13:33;21.40;95.10
14140;DHT22;7150;53.514;9.988;2022-09-09T08:16:11;21.50;95.10
14140;DHT22;7150;53.514;9.988;2022-09-09T08:18:38;21.50;95.10
14140;DHT22;7150;53.514;9.988;2022-09-09T08:21:15;21.60;95.20
14140;DHT22;7150;53.514;9.988;2022-09-09T08:23:43;21.60;95.20
14140;DHT22;7150;53.514;9.988;2022-09-09T08:26:19;21.60;95.20
14140;DHT22;7150;53.514;9.988;2022-09-09T08:28:49;21.70;95.10
14140;DHT22;7150;53.514;9.988;2022-09-09T08:31:19;21.70;95.10
14140;DHT22;7150;53.514;9.988;2022-09-09T08:33:45;21.80;95.10
14140;DHT22;7150;53.514;9.988;2022-09-09T08:36:18;21.80;95.00
14140;DHT22;7150;53.514;9.988;2022-09-09T08:38:48;21.90;95.10
14140;DHT22;7150;53.514;9.988;2022-09-09T08:49:13;21.90;95.00
14140;DHT22;7150;53.514;9.988;2022-09-09T08:51:43;22.00;95.00
14140;DHT22;7150;53.514;9.988;2022-09-09T08:54:09;22.00;95.00
14140;DHT22;7150;53.514;9.988;2022-09-09T08:56:35;22.00;95.00
14140;DHT22;7150;53.514;9.988;2022-09-09T08:59:02;22.00;95.00
14140;DHT22;7150;53.514;9.988;2022-09-09T09:04:07;22.10;95.00
14140;DHT22;7150;53.514;9.988;2022-09-09T09:07:02;22.20;95.00
14140;DHT22;7150;53.514;9.988;2022-09-09T09:09:57;22.20;94.90
14140;DHT22;7150;53.514;9.988;2022-09-09T09:12:29;22.20;94.70
14140;DHT22;7150;53.514;9.988;2022-09-09T09:14:59;22.20;94.90
14140;DHT22;7150;53.514;9.988;2022-09-09T09:17:27;22.20;94.90
14140;DHT22;7150;53.514;9.988;2022-09-09T09:19:53;22.30;94.90
14140;DHT22;7150;53.514;9.988;2022-09-09T09:22:41;22.30;94.90
14140;DHT22;7150;53.514;9.988;2022-09-09T09:30:20;22.40;94.90
14140;DHT22;7150;53.514;9.988;2022-09-09T09:32:56;22.40;94.80
14140;DHT22;7150;53.514;9.988;2022-09-09T09:35:22;22.50;94.80
14140;DHT22;7150;53.514;9.988;2022-09-09T09:37:49;22.50;94.80
14140;DHT22;7150;53.514;9.988;2022-09-09T09:40:17;22.50;94.80
14140;DHT22;7150;53.514;9.988;2022-09-09T09:42:54;22.60;94.80
14140;DHT22;7150;53.514;9.988;2022-09-09T09:45:32;22.60;94.70
14140;DHT22;7150;53.514;9.988;2022-09-09T09:48:05;22.60;94.70
14140;DHT22;7150;53.514;9.988;2022-09-09T09:50:32;22.60;94.60
14140;DHT22;7150;53.514;9.988;2022-09-09T09:53:02;22.60;94.70
14140;DHT22;7150;53.514;9.988;2022-09-09T09:55:31;22.70;94.70
14140;DHT22;7150;53.514;9.988;2022-09-09T09:58:06;22.70;94.70
14140;DHT22;7150;53.514;9.988;2022-09-09T10:00:48;22.70;94.60
14140;DHT22;7150;53.514;9.988;2022-09-09T10:03:49;22.70;94.60
14140;DHT22;7150;53.514;9.988;2022-09-09T10:06:15;22.80;94.60
14140;DHT22;7150;53.514;9.988;2022-09-09T10:08:45;22.80;94.60
14140;DHT22;7150;53.514;9.988;2022-09-09T10:11:57;22.80;94.60
14140;DHT22;7150;53.514;9.988;2022-09-09T10:14:43;22.90;94.50
14140;DHT22;7150;53.514;9.988;2022-09-09T10:22:35;23.00;94.40
14140;DHT22;7150;53.514;9.988;2022-09-09T10:28:09;23.00;94.40
14140;DHT22;7150;53.514;9.988;2022-09-09T10:30:55;23.10;94.30
14140;DHT22;7150;53.514;9.988;2022-09-09T10:33:42;23.10;94.30
14140;DHT22;7150;53.514;9.988;2022-09-09T10:36:24;23.10;94.20
14140;DHT22;7150;53.514;9.988;2022-09-09T10:44:37;23.20;94.20
14140;DHT22;7150;53.514;9.988;2022-09-09T10:50:03;23.20;94.20
14140;DHT22;7150;53.514;9.988;2022-09-09T10:55:50;23.20;94.10
14140;DHT22;7150;53.514;9.988;2022-09-09T10:58:30;23.30;94.00
14140;DHT22;7150;53.514;9.988;2022-09-09T11:01:03;23.30;94.00
14140;DHT22;7150;53.514;9.988;2022-09-09T11:03:34;23.30;93.90
14140;DHT22;7150;53.514;9.988;2022-09-09T11:06:05;23.40;93.90
14140;DHT22;7150;53.514;9.988;2022-09-09T11:08:34;23.40;93.90
14140;DHT22;7150;53.514;9.988;2022-09-09T11:13:49;23.50;93.70
14140;DHT22;7150;53.514;9.988;2022-09-09T11:16:46;23.50;93.60
14140;DHT22;7150;53.514;9.988;2022-09-09T11:19:42;23.60;93.50
14140;DHT22;7150;53.514;9.988;2022-09-09T11:22:37;23.60;93.40
14140;DHT22;7150;53.514;9.988;2022-09-09T11:25:19;23.70;93.40
14140;DHT22;7150;53.514;9.988;2022-09-09T11:28:16;23.80;93.30
14140;DHT22;7150;53.514;9.988;2022-09-09T11:33:58;23.80;93.20
14140;DHT22;7150;53.514;9.988;2022-09-09T11:36:43;23.80;93.10
14140;DHT22;7150;53.514;9.988;2022-09-09T11:41:42;24.00;93.10
14140;DHT22;7150;53.514;9.988;2022-09-09T11:44:19;24.00;93.00
14140;DHT22;7150;53.514;9.988;2022-09-09T11:46:51;24.00;92.90
14140;DHT22;7150;53.514;9.988;2022-09-09T11:49:41;24.00;92.80
14140;DHT22;7150;53.514;9.988;2022-09-09T11:52:24;24.00;92.70
14140;DHT22;7150;53.514;9.988;2022-09-09T11:54:54;24.00;92.80
14140;DHT22;7150;53.514;9.988;2022-09-09T11:57:27;24.00;92.90
14140;DHT22;7150;53.514;9.988;2022-09-09T11:59:56;24.00;92.90
14140;DHT22;7150;53.514;9.988;2022-09-09T12:02:29;24.00;92.80
14140;DHT22;7150;53.514;9.988;2022-09-09T12:05:11;24.00;92.90
14140;DHT22;7150;53.514;9.988;2022-09-09T12:07:42;24.00;92.80
14140;DHT22;7150;53.514;9.988;2022-09-09T12:10:33;23.90;92.90
14140;DHT22;7150;53.514;9.988;2022-09-09T12:13:18;24.00;92.90
14140;DHT22;7150;53.514;9.988;2022-09-09T12:15:49;23.90;92.90
14140;DHT22;7150;53.514;9.988;2022-09-09T12:18:24;23.90;93.00
14140;DHT22;7150;53.514;9.988;2022-09-09T12:26:23;24.00;93.20
14140;DHT22;7150;53.514;9.988;2022-09-09T12:31:35;24.00;93.20
14140;DHT22;7150;53.514;9.988;2022-09-09T12:37:34;24.10;93.10
14140;DHT22;7150;53.514;9.988;2022-09-09T12:40:06;24.00;93.00
14140;DHT22;7150;53.514;9.988;2022-09-09T12:42:32;24.00;93.20
14140;DHT22;7150;53.514;9.988;2022-09-09T12:45:03;24.10;93.20
14140;DHT22;7150;53.514;9.988;2022-09-09T12:47:57;24.10;93.20
14140;DHT22;7150;53.514;9.988;2022-09-09T12:50:27;24.10;93.00
14140;DHT22;7150;53.514;9.988;2022-09-09T12:52:56;24.10;93.10
14140;DHT22;7150;53.514;9.988;2022-09-09T12:55:31;24.00;93.00
14140;DHT22;7150;53.514;9.988;2022-09-09T12:57:58;24.00;93.00
14140;DHT22;7150;53.514;9.988;2022-09-09T13:00:25;24.00;93.10
14140;DHT22;7150;53.514;9.988;2022-09-09T13:02:56;23.90;93.10
14140;DHT22;7150;53.514;9.988;2022-09-09T13:05:25;23.90;93.20
14140;DHT22;7150;53.514;9.988;2022-09-09T13:07:51;23.80;93.20
14140;DHT22;7150;53.514;9.988;2022-09-09T13:10:28;23.80;93.20
14140;DHT22;7150;53.514;9.988;2022-09-09T13:12:54;23.70;93.30
14140;DHT22;7150;53.514;9.988;2022-09-09T13:15:22;23.70;93.40
14140;DHT22;7150;53.514;9.988;2022-09-09T13:18:00;23.60;93.40
14140;DHT22;7150;53.514;9.988;2022-09-09T13:20:27;23.60;93.50
14140;DHT22;7150;53.514;9.988;2022-09-09T13:22:54;23.60;93.60
14140;DHT22;7150;53.514;9.988;2022-09-09T13:25:25;23.50;93.60
14140;DHT22;7150;53.514;9.988;2022-09-09T13:27:57;23.40;93.70
14140;DHT22;7150;53.514;9.988;2022-09-09T13:30:28;23.40;93.80
14140;DHT22;7150;53.514;9.988;2022-09-09T13:33:17;23.30;93.90
14140;DHT22;7150;53.514;9.988;2022-09-09T13:38:16;23.10;94.30
14140;DHT22;7150;53.514;9.988;2022-09-09T13:40:57;23.00;94.40
14140;DHT22;7150;53.514;9.988;2022-09-09T13:43:25;23.00;94.50
14140;DHT22;7150;53.514;9.988;2022-09-09T13:45:59;23.00;94.60
14140;DHT22;7150;53.514;9.988;2022-09-09T13:48:26;22.90;94.80
14140;DHT22;7150;53.514;9.988;2022-09-09T13:51:01;22.90;94.90
14140;DHT22;7150;53.514;9.988;2022-09-09T13:53:28;22.80;94.90
14140;DHT22;7150;53.514;9.988;2022-09-09T13:55:54;22.80;95.00
14140;DHT22;7150;53.514;9.988;2022-09-09T13:58:20;22.80;95.10
14140;DHT22;7150;53.514;9.988;2022-09-09T14:00:46;22.70;95.20
14140;DHT22;7150;53.514;9.988;2022-09-09T14:03:12;22.70;95.20
14140;DHT22;7150;53.514;9.988;2022-09-09T14:05:39;22.70;95.30
14140;DHT22;7150;53.514;9.988;2022-09-09T14:08:05;22.70;95.30
14140;DHT22;7150;53.514;9.988;2022-09-09T14:10:31;22.70;95.40
14140;DHT22;7150;53.514;9.988;2022-09-09T14:12:57;22.70;95.40
14140;DHT22;7150;53.514;9.988;2022-09-09T14:15:22;22.70;95.70
14140;DHT22;7150;53.514;9.988;2022-09-09T14:17:48;22.60;95.50
14140;DHT22;7150;53.514;9.988;2022-09-09T14:20:14;22.60;95.40
14140;DHT22;7150;53.514;9.988;2022-09-09T14:22:41;22.60;95.50
14140;DHT22;7150;53.514;9.988;2022-09-09T14:25:07;22.60;95.60
14140;DHT22;7150;53.514;9.988;2022-09-09T14:27:33;22.60;95.70
14140;DHT22;7150;53.514;9.988;2022-09-09T14:29:59;22.50;95.60
14140;DHT22;7150;53.514;9.988;2022-09-09T14:32:26;22.60;95.70
14140;DHT22;7150;53.514;9.988;2022-09-09T14:34:52;22.60;95.70
14140;DHT22;7150;53.514;9.988;2022-09-09T14:37:18;22.50;95.70
14140;DHT22;7150;53.514;9.988;2022-09-09T14:39:44;22.50;95.70
14140;DHT22;7150;53.514;9.988;2022-09-09T14:42:13;22.40;95.70
14140;DHT22;7150;53.514;9.988;2022-09-09T14:44:39;22.40;95.70
14140;DHT22;7150;53.514;9.988;2022-09-09T14:47:05;22.40;95.80
14140;DHT22;7150;53.514;9.988;2022-09-09T14:49:31;22.40;95.80
14140;DHT22;7150;53.514;9.988;2022-09-09T14:51:57;22.30;95.80
14140;DHT22;7150;53.514;9.988;2022-09-09T14:54:22;22.30;95.70
14140;DHT22;7150;53.514;9.988;2022-09-09T14:56:48;22.20;95.80
14140;DHT22;7150;53.514;9.988;2022-09-09T14:59:14;22.20;95.90
14140;DHT22;7150;53.514;9.988;2022-09-09T15:01:39;22.20;95.90
14140;DHT22;7150;53.514;9.988;2022-09-09T15:04:05;22.20;96.00
14140;DHT22;7150;53.514;9.988;2022-09-09T15:06:33;22.10;95.90
14140;DHT22;7150;53.514;9.988;2022-09-09T15:08:59;22.10;96.00
14140;DHT22;7150;53.514;9.988;2022-09-09T15:11:30;22.10;96.00
14140;DHT22;7150;53.514;9.988;2022-09-09T15:13:56;22.10;96.00
14140;DHT22;7150;53.514;9.988;2022-09-09T15:16:25;22.10;96.00
14140;DHT22;7150;53.514;9.988;2022-09-09T15:18:52;22.10;96.40
14140;DHT22;7150;53.514;9.988;2022-09-09T15:21:21;22.10;96.10
14140;DHT22;7150;53.514;9.988;2022-09-09T15:23:47;22.10;96.20
14140;DHT22;7150;53.514;9.988;2022-09-09T15:26:13;22.10;96.20
14140;DHT22;7150;53.514;9.988;2022-09-09T15:28:43;22.10;96.10
14140;DHT22;7150;53.514;9.988;2022-09-09T15:31:15;22.20;96.20
14140;DHT22;7150;53.514;9.988;2022-09-09T15:36:25;22.20;96.30
14140;DHT22;7150;53.514;9.988;2022-09-09T15:38:52;22.20;96.30
14140;DHT22;7150;53.514;9.988;2022-09-09T15:41:19;22.30;96.30
14140;DHT22;7150;53.514;9.988;2022-09-09T15:43:47;22.30;96.20
14140;DHT22;7150;53.514;9.988;2022-09-09T15:48:43;22.40;96.10
14140;DHT22;7150;53.514;9.988;2022-09-09T15:51:10;22.40;96.10
14140;DHT22;7150;53.514;9.988;2022-09-09T15:53:36;22.50;96.10
14140;DHT22;7150;53.514;9.988;2022-09-09T15:56:04;22.50;96.10
14140;DHT22;7150;53.514;9.988;2022-09-09T15:58:32;22.50;96.00
14140;DHT22;7150;53.514;9.988;2022-09-09T16:01:08;22.60;96.00
14140;DHT22;7150;53.514;9.988;2022-09-09T16:03:35;22.60;96.00
14140;DHT22;7150;53.514;9.988;2022-09-09T16:06:00;22.60;95.90
14140;DHT22;7150;53.514;9.988;2022-09-09T16:08:36;22.60;95.80
14140;DHT22;7150;53.514;9.988;2022-09-09T16:11:13;22.60;95.80
14140;DHT22;7150;53.514;9.988;2022-09-09T16:13:43;22.60;95.80
14140;DHT22;7150;53.514;9.988;2022-09-09T16:16:10;22.60;95.80
14140;DHT22;7150;53.514;9.988;2022-09-09T16:18:39;22.70;95.80
14140;DHT22;7150;53.514;9.988;2022-09-09T16:21:06;22.60;95.80
14140;DHT22;7150;53.514;9.988;2022-09-09T16:23:36;22.70;95.80
14140;DHT22;7150;53.514;9.988;2022-09-09T16:26:02;22.60;95.70
14140;DHT22;7150;53.514;9.988;2022-09-09T16:28:28;22.60;95.70
14140;DHT22;7150;53.514;9.988;2022-09-09T16:30:54;22.60;95.70
14140;DHT22;7150;53.514;9.988;2022-09-09T16:33:19;22.60;95.70
14140;DHT22;7150;53.514;9.988;2022-09-09T16:35:45;22.60;95.70
14140;DHT22;7150;53.514;9.988;2022-09-09T16:38:11;22.60;95.70
14140;DHT22;7150;53.514;9.988;2022-09-09T16:40:37;22.60;95.60
14140;DHT22;7150;53.514;9.988;2022-09-09T16:43:06;22.60;95.70
14140;DHT22;7150;53.514;9.988;2022-09-09T16:45:31;22.60;95.70
14140;DHT22;7150;53.514;9.988;2022-09-09T16:47:58;22.50;95.60
14140;DHT22;7150;53.514;9.988;2022-09-09T16:50:23;22.50;95.70
14140;DHT22;7150;53.514;9.988;2022-09-09T16:52:49;22.40;95.60
14140;DHT22;7150;53.514;9.988;2022-09-09T16:55:15;22.50;95.70
14140;DHT22;7150;53.514;9.988;2022-09-09T16:57:41;22.50;95.70
14140;DHT22;7150;53.514;9.988;2022-09-09T17:00:07;22.40;95.60
14140;DHT22;7150;53.514;9.988;2022-09-09T17:02:33;22.40;95.70
14140;DHT22;7150;53.514;9.988;2022-09-09T17:04:59;22.40;95.70
14140;DHT22;7150;53.514;9.988;2022-09-09T17:07:25;22.40;95.80
14140;DHT22;7150;53.514;9.988;2022-09-09T17:09:50;22.30;95.70
14140;DHT22;7150;53.514;9.988;2022-09-09T17:12:16;22.30;95.80
14140;DHT22;7150;53.514;9.988;2022-09-09T17:14:42;22.30;95.90
14140;DHT22;7150;53.514;9.988;2022-09-09T17:17:08;22.20;95.80
14140;DHT22;7150;53.514;9.988;2022-09-09T17:19:34;22.20;95.80
14140;DHT22;7150;53.514;9.988;2022-09-09T17:21:59;22.20;95.90
14140;DHT22;7150;53.514;9.988;2022-09-09T17:24:26;22.20;96.00
14140;DHT22;7150;53.514;9.988;2022-09-09T17:26:52;22.20;96.00
14140;DHT22;7150;53.514;9.988;2022-09-09T17:29:18;22.10;96.00
14140;DHT22;7150;53.514;9.988;2022-09-09T17:31:44;22.10;96.00
14140;DHT22;7150;53.514;9.988;2022-09-09T17:34:09;22.10;96.00
14140;DHT22;7150;53.514;9.988;2022-09-09T17:36:35;22.10;96.10
14140;DHT22;7150;53.514;9.988;2022-09-09T17:39:03;22.10;96.10
14140;DHT22;7150;53.514;9.988;2022-09-09T17:41:34;22.00;96.00
14140;DHT22;7150;53.514;9.988;2022-09-09T17:44:00;22.00;96.00
14140;DHT22;7150;53.514;9.988;2022-09-09T17:46:31;22.00;96.10
14140;DHT22;7150;53.514;9.988;2022-09-09T17:49:01;22.00;96.10